createdAt,value
2019-02-09T00:01:06.750Z,56.43
2019-02-09T00:03:36.844Z,56.70
2019-02-09T00:06:08.032Z,63.37
2019-02-09T00:08:38.056Z,63.53
2019-02-09T00:11:08.141Z,58.47
2019-02-09T00:13:38.047Z,60.67
2019-02-09T00:16:09.095Z,64.23
2019-02-09T00:18:39.005Z,58.20
2019-02-09T00:21:09.046Z,61.37
2019-02-09T00:23:39.053Z,57.97
2019-02-09T00:26:10.025Z,55.63
2019-02-09T00:28:40.123Z,55.00
2019-02-09T00:31:10.037Z,58.90
2019-02-09T00:33:40.015Z,57.40
2019-02-09T00:36:11.011Z,63.60
2019-02-09T00:38:40.914Z,57.47
2019-02-09T00:41:10.805Z,53.20
2019-02-09T00:43:40.812Z,53.97
2019-02-09T00:46:11.714Z,50.97
2019-02-09T00:48:41.624Z,56.93
2019-02-09T00:51:11.627Z,57.63
2019-02-09T00:53:41.506Z,51.63
2019-02-09T00:56:12.578Z,63.33
2019-02-09T00:58:42.499Z,59.33
2019-02-09T01:01:13.500Z,57.63
2019-02-09T01:03:43.388Z,57.60
2019-02-09T01:06:14.495Z,51.47
2019-02-09T01:08:44.396Z,53.77
2019-02-09T01:11:14.281Z,52.73
2019-02-09T01:13:44.310Z,47.70
2019-02-09T01:16:15.289Z,55.70
2019-02-09T01:18:45.286Z,48.50
2019-02-09T01:21:15.185Z,44.90
2019-02-09T01:23:45.168Z,49.30
2019-02-09T01:26:16.236Z,52.40
2019-02-09T01:28:46.440Z,51.80
2019-02-09T01:31:16.438Z,47.17
2019-02-09T01:33:46.486Z,44.20
2019-02-09T01:36:29.175Z,53.93
2019-02-09T01:38:59.185Z,52.60
2019-02-09T01:41:29.196Z,47.93
2019-02-09T01:43:59.255Z,54.83
2019-02-09T01:46:30.228Z,46.93
2019-02-09T01:49:00.253Z,54.40
2019-02-09T01:51:30.150Z,48.70
2019-02-09T01:54:00.145Z,48.00
2019-02-09T01:56:31.133Z,45.80
2019-02-09T01:59:01.124Z,46.97
2019-02-09T02:01:32.056Z,47.47
2019-02-09T02:04:02.045Z,49.73
2019-02-09T02:06:33.121Z,46.10
2019-02-09T02:09:03.212Z,41.53
2019-02-09T02:11:33.931Z,43.37
2019-02-09T02:14:03.969Z,45.67
2019-02-09T02:16:34.954Z,45.23
2019-02-09T02:19:05.035Z,43.67
2019-02-09T02:21:34.951Z,46.17
2019-02-09T02:24:04.934Z,42.07
2019-02-09T02:26:35.923Z,45.17
2019-02-09T02:29:05.920Z,41.27
2019-02-09T02:31:35.816Z,37.23
2019-02-09T02:34:05.797Z,45.30
2019-02-09T02:36:36.754Z,37.80
2019-02-09T02:39:09.387Z,40.97
2019-02-09T02:41:39.300Z,44.93
2019-02-09T02:44:09.362Z,39.70
2019-02-09T02:46:40.357Z,43.90
2019-02-09T02:49:10.379Z,46.57
2019-02-09T02:51:40.273Z,42.87
2019-02-09T02:54:10.244Z,40.73
2019-02-09T02:56:41.249Z,48.47
2019-02-09T02:59:11.239Z,47.53
2019-02-09T03:01:42.081Z,42.87
2019-02-09T03:04:12.086Z,42.27
2019-02-09T03:06:44.201Z,41.73
2019-02-09T03:09:14.176Z,41.27
2019-02-09T03:11:44.177Z,52.33
2019-02-09T03:14:14.257Z,46.20
2019-02-09T03:16:45.265Z,49.37
2019-02-09T03:19:15.241Z,47.30
2019-02-09T03:21:45.152Z,46.30
2019-02-09T03:24:15.188Z,51.77
2019-02-09T03:26:47.257Z,45.80
2019-02-09T03:29:17.275Z,44.30
2019-02-09T03:31:47.202Z,41.87
2019-02-09T03:34:17.156Z,43.30
2019-02-09T03:36:48.143Z,47.30
2019-02-09T03:39:18.151Z,48.27
2019-02-09T03:41:48.154Z,42.00
2019-02-09T03:44:18.219Z,42.17
2019-02-09T03:46:49.336Z,53.17
2019-02-09T03:49:19.367Z,48.30
2019-02-09T03:51:50.477Z,44.73
2019-02-09T03:54:20.510Z,47.73
2019-02-09T03:56:51.642Z,51.03
2019-02-09T03:59:22.765Z,53.13
2019-02-09T04:01:53.718Z,50.90
2019-02-09T04:04:23.737Z,48.93
2019-02-09T04:06:54.903Z,51.47
2019-02-09T04:09:24.928Z,53.00
2019-02-09T04:11:54.828Z,48.40
2019-02-09T04:14:24.897Z,51.27
2019-02-09T04:16:55.978Z,48.27
2019-02-09T04:19:25.949Z,47.57
2019-02-09T04:21:55.914Z,47.10
2019-02-09T04:24:26.005Z,51.67
2019-02-09T04:26:57.105Z,45.07
2019-02-09T04:29:27.119Z,45.97
2019-02-09T04:31:57.020Z,51.13
2019-02-09T04:34:27.008Z,50.97
2019-02-09T04:36:58.137Z,49.27
2019-02-09T04:39:28.142Z,48.23
2019-02-09T04:41:58.151Z,44.90
2019-02-09T04:44:28.105Z,46.00
2019-02-09T04:46:59.181Z,49.93
2019-02-09T04:49:29.096Z,49.23
2019-02-09T04:51:59.040Z,46.90
2019-02-09T04:54:29.056Z,46.30
2019-02-09T04:57:01.017Z,47.07
2019-02-09T04:59:30.907Z,48.17
2019-02-09T05:02:01.830Z,53.17
2019-02-09T05:04:31.707Z,42.77
2019-02-09T05:07:02.874Z,42.17
2019-02-09T05:09:32.793Z,51.03
2019-02-09T05:12:02.802Z,52.07
2019-02-09T05:14:32.780Z,47.53
2019-02-09T05:17:03.887Z,45.40
2019-02-09T05:19:33.789Z,48.57
2019-02-09T05:22:03.807Z,48.03
2019-02-09T05:24:33.736Z,46.00
2019-02-09T05:27:04.758Z,46.47
2019-02-09T05:29:34.656Z,49.20
2019-02-09T05:32:04.645Z,41.67
2019-02-09T05:34:34.582Z,45.40
2019-02-09T05:37:05.772Z,39.07
2019-02-09T05:39:35.696Z,41.57
2019-02-09T05:42:05.802Z,42.40
2019-02-09T05:44:35.773Z,46.70
2019-02-09T05:47:06.960Z,42.53
2019-02-09T05:49:36.865Z,44.50
2019-02-09T05:52:06.866Z,40.50
2019-02-09T05:54:36.778Z,167.60
2019-02-09T05:57:07.956Z,91.60
2019-02-09T05:59:37.852Z,51.80
2019-02-09T06:02:08.675Z,42.70
2019-02-09T06:04:38.577Z,42.67
2019-02-09T06:07:09.733Z,37.63
2019-02-09T06:09:39.657Z,42.80
2019-02-09T06:12:09.649Z,43.47
2019-02-09T06:14:39.634Z,37.10
2019-02-09T06:17:10.643Z,39.47
2019-02-09T06:19:40.577Z,39.57
2019-02-09T06:22:10.650Z,43.17
2019-02-09T06:24:40.557Z,38.40
2019-02-09T06:27:11.626Z,34.47
2019-02-09T06:29:41.531Z,38.53
2019-02-09T06:32:11.529Z,36.23
2019-02-09T06:34:43.015Z,39.93
2019-02-09T06:37:14.059Z,38.23
2019-02-09T06:39:43.973Z,37.63
2019-02-09T06:42:13.959Z,45.10
2019-02-09T06:44:43.921Z,38.27
2019-02-09T06:47:15.086Z,41.80
2019-02-09T06:49:44.976Z,47.47
2019-02-09T06:52:15.000Z,38.90
2019-02-09T06:54:44.907Z,42.20
2019-02-09T06:57:15.934Z,37.00
2019-02-09T06:59:46.957Z,40.83
2019-02-09T07:02:17.902Z,35.30
2019-02-09T07:04:47.801Z,37.80
2019-02-09T07:07:18.849Z,34.67
2019-02-09T07:09:48.754Z,37.40
2019-02-09T07:12:18.757Z,35.00
2019-02-09T07:14:48.747Z,37.90
2019-02-09T07:17:19.888Z,33.57
2019-02-09T07:19:49.792Z,32.93
2019-02-09T07:22:19.788Z,33.47
2019-02-09T07:24:49.699Z,36.30
2019-02-09T07:27:21.350Z,28.07
2019-02-09T07:29:51.280Z,34.00
2019-02-09T07:32:21.837Z,35.20
2019-02-09T07:34:52.312Z,32.98
2019-02-09T07:37:23.983Z,35.73
2019-02-09T07:39:54.473Z,38.65
2019-02-09T07:42:25.054Z,34.18
2019-02-09T07:44:55.610Z,34.10
2019-02-09T07:47:27.234Z,28.95
2019-02-09T07:49:57.721Z,31.95
2019-02-09T07:52:28.308Z,29.95
2019-02-09T07:54:58.821Z,35.68
2019-02-09T07:57:30.597Z,36.20
2019-02-09T08:00:01.080Z,29.92
2019-02-09T08:02:32.654Z,33.73
2019-02-09T08:05:03.151Z,31.25
2019-02-09T08:07:34.865Z,33.08
2019-02-09T08:10:13.952Z,29.98
2019-02-09T08:12:44.519Z,34.05
2019-02-09T08:15:17.857Z,39.00
2019-02-09T08:17:49.672Z,61.53
2019-02-09T08:20:22.696Z,50.90
2019-02-09T08:22:53.393Z,36.42
2019-02-09T08:25:26.150Z,35.43
2019-02-09T08:27:57.890Z,35.92
2019-02-09T08:30:37.376Z,36.83
2019-02-09T08:33:08.038Z,32.80
2019-02-09T08:35:40.227Z,34.63
2019-02-09T08:38:12.864Z,30.90
2019-02-09T08:40:43.416Z,29.72
2019-02-09T08:43:14.110Z,32.58
2019-02-09T08:45:44.889Z,37.65
2019-02-09T08:48:15.680Z,33.80
2019-02-09T08:50:52.202Z,53.20
2019-02-09T08:53:22.780Z,45.73
2019-02-09T08:55:53.270Z,35.65
2019-02-09T08:58:23.834Z,33.02
2019-02-09T09:00:55.902Z,31.70
2019-02-09T09:03:27.447Z,32.25
2019-02-09T09:05:57.945Z,31.52
2019-02-09T09:08:28.503Z,34.43
2019-02-09T09:10:59.035Z,31.23
2019-02-09T09:13:29.506Z,37.17
2019-02-09T09:16:01.489Z,42.10
2019-02-09T09:18:31.871Z,36.05
2019-02-09T09:21:05.263Z,40.85
2019-02-09T09:23:36.834Z,35.08
2019-02-09T09:26:08.486Z,48.45
2019-02-09T09:28:38.984Z,30.40
2019-02-09T09:31:09.547Z,29.35
2019-02-09T09:33:40.050Z,29.32
2019-02-09T09:36:11.793Z,25.30
2019-02-09T09:38:42.291Z,30.35
2019-02-09T09:41:12.855Z,27.93
2019-02-09T09:43:43.354Z,26.25
2019-02-09T09:46:15.232Z,28.23
2019-02-09T09:48:45.712Z,26.80
2019-02-09T09:51:16.367Z,28.77
2019-02-09T09:53:46.858Z,32.30
2019-02-09T09:56:19.482Z,31.17
2019-02-09T09:58:49.986Z,30.92
2019-02-09T10:01:20.531Z,35.28
2019-02-09T10:03:52.203Z,32.38
2019-02-09T10:06:23.893Z,37.23
2019-02-09T10:08:54.397Z,38.55
2019-02-09T10:11:25.009Z,137.85
2019-02-09T10:13:55.482Z,51.45
2019-02-09T10:16:28.284Z,43.90
2019-02-09T10:18:58.778Z,44.65
2019-02-09T10:21:29.378Z,44.50
2019-02-09T10:23:59.837Z,45.98
2019-02-09T10:26:31.544Z,47.62
2019-02-09T10:29:02.104Z,51.68
2019-02-09T10:31:32.804Z,57.95
2019-02-09T10:34:03.312Z,56.88
2019-02-09T10:36:34.987Z,59.75
2019-02-09T10:39:07.939Z,59.95
2019-02-09T10:41:38.726Z,66.37
2019-02-09T10:44:09.200Z,63.78
2019-02-09T10:46:43.840Z,62.10
2019-02-09T10:49:14.222Z,69.67
2019-02-09T10:51:45.289Z,72.08
2019-02-09T10:54:15.838Z,73.95
2019-02-09T10:56:47.584Z,75.20
2019-02-09T10:59:18.160Z,70.25
2019-02-09T11:01:48.752Z,67.27
2019-02-09T11:04:19.384Z,68.70
2019-02-09T11:06:50.435Z,64.87
2019-02-09T11:09:21.473Z,60.10
2019-02-09T11:11:52.091Z,63.95
2019-02-09T11:14:21.999Z,102.97
2019-02-09T11:16:53.764Z,73.95
2019-02-09T11:19:24.256Z,59.03
2019-02-09T11:21:54.825Z,64.30
2019-02-09T11:24:25.182Z,65.40
2019-02-09T11:26:56.916Z,62.53
2019-02-09T11:29:27.436Z,61.55
2019-02-09T11:31:57.451Z,64.20
2019-02-09T11:34:27.938Z,67.50
2019-02-09T11:36:59.755Z,63.40
2019-02-09T11:39:30.671Z,67.00
2019-02-09T11:42:01.540Z,66.57
2019-02-09T11:44:31.449Z,71.40
2019-02-09T11:47:02.247Z,68.65
2019-02-09T11:49:33.125Z,64.62
2019-02-09T11:52:03.881Z,72.60
2019-02-09T11:54:34.668Z,74.17
2019-02-09T11:57:08.020Z,65.52
2019-02-09T11:59:39.502Z,72.72
2019-02-09T12:02:09.670Z,69.37
2019-02-09T12:04:42.039Z,71.57
2019-02-09T12:07:13.057Z,69.40
2019-02-09T12:09:44.600Z,69.82
2019-02-09T12:12:14.711Z,80.20
2019-02-09T12:14:44.630Z,76.80
2019-02-09T12:17:14.718Z,80.70
2019-02-09T12:19:44.937Z,83.63
2019-02-09T12:22:15.538Z,72.85
2019-02-09T12:24:46.044Z,77.55
2019-02-09T12:27:20.244Z,80.35
2019-02-09T12:29:51.909Z,73.83
2019-02-09T12:32:24.850Z,73.35
2019-02-09T12:34:56.752Z,75.52
2019-02-09T12:37:28.093Z,88.07
2019-02-09T12:39:57.972Z,86.28
2019-02-09T12:42:28.554Z,93.92
2019-02-09T12:44:59.046Z,77.03
2019-02-09T12:47:29.839Z,78.22
2019-02-09T12:50:00.749Z,74.85
2019-02-09T12:52:32.376Z,87.72
2019-02-09T12:55:03.280Z,75.47
2019-02-09T12:57:35.252Z,86.28
2019-02-09T13:00:08.490Z,88.75
2019-02-09T13:02:39.462Z,89.80
2019-02-09T13:05:11.083Z,87.15
2019-02-09T13:07:43.667Z,82.42
2019-02-09T13:10:18.598Z,79.47
2019-02-09T13:12:49.170Z,82.80
2019-02-09T13:15:22.403Z,85.22
2019-02-09T13:17:55.216Z,78.70
2019-02-09T13:20:28.254Z,81.67
2019-02-09T13:22:58.884Z,87.37
2019-02-09T13:25:29.970Z,77.55
2019-02-09T13:28:00.598Z,84.17
2019-02-09T13:30:42.920Z,93.03
2019-02-09T13:33:13.897Z,88.75
2019-02-09T13:35:44.402Z,170.07
2019-02-09T13:38:14.976Z,138.22
2019-02-09T13:40:44.819Z,121.30
2019-02-09T13:43:18.337Z,92.55
2019-02-09T13:46:09.254Z,84.35
2019-02-09T13:48:40.135Z,81.00
2019-02-09T13:51:10.110Z,84.60
2019-02-09T13:53:40.101Z,85.62
2019-02-09T13:56:16.360Z,82.33
2019-02-09T13:58:46.379Z,78.93
2019-02-09T14:01:17.360Z,73.67
2019-02-09T14:03:47.512Z,79.07
2019-02-09T14:06:23.725Z,77.27
2019-02-09T14:08:53.856Z,80.90
2019-02-09T14:11:24.337Z,73.92
2019-02-09T14:13:54.953Z,73.85
2019-02-09T14:16:38.357Z,79.17
2019-02-09T14:19:05.087Z,68.50
2019-02-09T14:21:35.306Z,78.50
2019-02-09T14:24:05.307Z,79.72
2019-02-09T14:26:35.225Z,75.93
2019-02-09T14:29:05.792Z,88.33
2019-02-09T14:31:37.676Z,72.20
2019-02-09T14:34:08.654Z,83.30
2019-02-09T14:36:38.839Z,76.20
2019-02-09T14:39:10.941Z,77.85
2019-02-09T14:41:41.440Z,72.97
2019-02-09T14:44:11.473Z,76.93
2019-02-09T14:46:41.467Z,75.40
2019-02-09T14:49:12.770Z,78.17
2019-02-09T14:51:42.745Z,86.30
2019-02-09T14:54:13.301Z,74.00
2019-02-09T14:56:44.089Z,74.03
2019-02-09T14:59:14.119Z,77.17
2019-02-09T15:01:45.826Z,88.50
2019-02-09T15:04:16.481Z,75.95
2019-02-09T15:06:48.116Z,71.80
2019-02-09T15:09:18.936Z,84.22
2019-02-09T15:11:48.890Z,74.20
2019-02-09T15:14:19.722Z,76.00
2019-02-09T15:16:50.850Z,78.42
2019-02-09T15:19:21.498Z,93.80
2019-02-09T15:21:51.393Z,80.10
2019-02-09T15:24:22.074Z,78.00
2019-02-09T15:26:52.529Z,72.45
2019-02-09T15:29:23.123Z,78.90
2019-02-09T15:31:53.635Z,75.37
2019-02-09T15:34:23.652Z,83.55
2019-02-09T15:36:54.152Z,81.57
2019-02-09T15:39:24.170Z,87.73
2019-02-09T15:41:54.083Z,88.55
2019-02-09T15:44:24.678Z,90.50
2019-02-09T15:46:55.647Z,73.90
2019-02-09T15:49:26.343Z,77.67
2019-02-09T15:51:57.018Z,80.90
2019-02-09T15:54:27.613Z,79.30
2019-02-09T15:56:57.544Z,76.70
2019-02-09T15:59:27.561Z,79.87
2019-02-09T16:01:57.441Z,80.63
2019-02-09T16:04:33.399Z,77.70
2019-02-09T16:07:06.169Z,77.53
2019-02-09T16:09:36.162Z,92.08
2019-02-09T16:12:06.063Z,84.20
2019-02-09T16:14:56.092Z,88.50
2019-02-09T16:17:26.034Z,85.38
2019-02-09T16:19:56.672Z,89.28
2019-02-09T16:22:26.919Z,84.57
2019-02-09T16:24:58.019Z,83.78
2019-02-09T16:27:29.464Z,85.22
2019-02-09T16:29:59.951Z,85.13
2019-02-09T16:32:30.280Z,75.60
2019-02-09T16:35:01.402Z,81.95
2019-02-09T16:37:31.890Z,92.43
2019-02-09T16:40:02.377Z,78.97
2019-02-09T16:42:32.701Z,92.33
2019-02-09T16:45:03.194Z,80.03
2019-02-09T16:47:33.549Z,77.60
2019-02-09T16:50:05.100Z,83.90
2019-02-09T16:52:35.808Z,88.47
2019-02-09T16:55:09.204Z,82.23
2019-02-09T16:57:39.786Z,88.70
2019-02-09T17:00:16.103Z,92.63
2019-02-09T17:02:46.860Z,90.73
2019-02-09T17:05:36.615Z,91.83
2019-02-09T17:08:08.069Z,90.10
2019-02-09T17:10:38.678Z,95.90
2019-02-09T17:13:09.368Z,93.53
2019-02-09T17:15:46.193Z,92.08
2019-02-09T17:18:17.027Z,94.67
2019-02-09T17:20:47.864Z,91.43
2019-02-09T17:23:18.609Z,103.50
2019-02-09T17:25:49.218Z,101.90
2019-02-09T17:28:19.598Z,106.43
2019-02-09T17:30:50.103Z,104.27
2019-02-09T17:33:21.921Z,103.83
2019-02-09T17:35:53.617Z,106.73
2019-02-09T17:38:29.876Z,100.80
2019-02-09T17:41:01.173Z,104.87
2019-02-09T17:43:31.506Z,105.80
2019-02-09T17:46:11.410Z,111.47
2019-02-09T17:48:41.871Z,109.40
2019-02-09T17:51:12.502Z,120.47
2019-02-09T17:53:42.880Z,114.50
2019-02-09T17:56:15.567Z,121.60
2019-02-09T17:58:45.975Z,106.73
2019-02-09T18:01:16.578Z,113.20
2019-02-09T18:03:46.930Z,111.87
2019-02-09T18:06:18.502Z,107.97
2019-02-09T18:08:49.906Z,112.45
2019-02-09T18:11:21.034Z,118.27
2019-02-09T18:13:51.495Z,112.37
2019-02-09T18:16:23.189Z,118.87
2019-02-09T18:18:53.605Z,124.93
2019-02-09T18:21:24.186Z,111.33
2019-02-09T18:23:55.323Z,116.73
2019-02-09T18:26:25.898Z,115.67
2019-02-09T18:28:56.250Z,118.00
2019-02-09T18:31:26.772Z,139.07
2019-02-09T18:33:57.104Z,121.83
2019-02-09T18:36:27.640Z,123.43
2019-02-09T18:38:57.976Z,123.47
2019-02-09T18:41:29.164Z,119.03
2019-02-09T18:43:59.913Z,114.97
2019-02-09T18:46:30.442Z,125.50
2019-02-09T18:49:00.778Z,119.23
2019-02-09T18:51:31.593Z,137.40
2019-02-09T18:54:01.926Z,124.90
2019-02-09T18:56:32.438Z,129.37
2019-02-09T18:59:02.805Z,134.13
2019-02-09T19:01:33.333Z,121.05
2019-02-09T19:04:07.858Z,128.93
2019-02-09T19:06:40.092Z,124.93
2019-02-09T19:09:11.525Z,123.10
2019-02-09T19:11:42.134Z,128.20
2019-02-09T19:14:13.800Z,120.50
2019-02-09T19:16:44.391Z,120.43
2019-02-09T19:19:18.127Z,131.25
2019-02-09T19:21:49.477Z,131.37
2019-02-09T19:24:19.948Z,118.80
2019-02-09T19:26:50.437Z,117.17
2019-02-09T19:29:20.893Z,124.80
2019-02-09T19:31:51.577Z,122.07
2019-02-09T19:34:22.221Z,123.37
2019-02-09T19:36:53.090Z,124.70
2019-02-09T19:39:23.671Z,135.70
2019-02-09T19:41:54.547Z,126.47
2019-02-09T19:44:27.500Z,129.43
2019-02-09T19:46:58.992Z,124.73
2019-02-09T19:49:29.717Z,125.70
2019-02-09T19:52:00.685Z,131.23
2019-02-09T19:54:32.608Z,114.33
2019-02-09T19:57:03.280Z,125.63
2019-02-09T19:59:33.950Z,125.60
2019-02-09T20:02:05.391Z,125.17
2019-02-09T20:04:36.665Z,118.47
2019-02-09T20:07:07.697Z,118.93
2019-02-09T20:09:39.090Z,120.63
2019-02-09T20:12:09.599Z,132.83
2019-02-09T20:14:40.149Z,123.07
2019-02-09T20:17:10.628Z,124.73
2019-02-09T20:19:40.997Z,127.77
2019-02-09T20:22:11.791Z,117.53
2019-02-09T20:24:48.633Z,132.97
2019-02-09T20:27:19.156Z,119.93
2019-02-09T20:29:49.835Z,119.03
2019-02-09T20:32:22.252Z,123.33
2019-02-09T20:34:55.045Z,115.17
2019-02-09T20:37:26.031Z,115.07
2019-02-09T20:39:57.965Z,117.40
2019-02-09T20:42:29.184Z,131.43
2019-02-09T20:45:00.843Z,133.67
2019-02-09T20:47:31.993Z,124.20
2019-02-09T20:50:08.164Z,104.70
2019-02-09T20:52:38.747Z,132.03
2019-02-09T20:55:11.736Z,124.17
2019-02-09T20:57:42.561Z,130.27
2019-02-09T21:00:18.583Z,132.40
2019-02-09T21:02:50.169Z,138.43
2019-02-09T21:05:22.949Z,130.00
2019-02-09T21:07:54.179Z,128.03
2019-02-09T21:10:49.938Z,117.17
2019-02-09T21:13:20.449Z,116.60
2019-02-09T21:16:03.384Z,121.37
2019-02-09T21:18:33.831Z,122.17
2019-02-09T21:21:04.213Z,130.20
2019-02-09T21:23:34.711Z,123.13
2019-02-09T21:26:05.166Z,141.93
2019-02-09T21:28:35.864Z,151.43
2019-02-09T21:31:06.367Z,148.63
2019-02-09T21:33:36.904Z,122.40
2019-02-09T21:36:07.295Z,123.47
2019-02-09T21:38:37.869Z,119.47
2019-02-09T21:41:08.241Z,121.87
2019-02-09T21:43:38.782Z,129.83
2019-02-09T21:46:09.443Z,134.00
2019-02-09T21:48:39.964Z,126.70
2019-02-09T21:51:10.317Z,122.50
2019-02-09T21:53:40.933Z,124.93
2019-02-09T21:56:11.286Z,125.50
2019-02-09T21:58:42.967Z,122.10
2019-02-09T22:01:13.328Z,123.13
2019-02-09T22:03:43.939Z,112.13
2019-02-09T22:06:14.386Z,131.22
2019-02-09T22:08:45.942Z,131.17
2019-02-09T22:11:17.487Z,125.20
2019-02-09T22:13:47.975Z,141.83
2019-02-09T22:16:18.458Z,134.93
2019-02-09T22:18:50.349Z,136.13
2019-02-09T22:21:21.061Z,147.60
2019-02-09T22:23:51.892Z,153.20
2019-02-09T22:26:22.269Z,152.87
2019-02-09T22:28:53.557Z,146.43
2019-02-09T22:31:23.632Z,161.77
2019-02-09T22:33:53.887Z,145.90
2019-02-09T22:36:23.887Z,138.67
2019-02-09T22:38:55.036Z,144.10
2019-02-09T22:41:25.054Z,124.33
2019-02-09T22:43:55.202Z,144.03
2019-02-09T22:46:25.338Z,149.60
2019-02-09T22:48:56.560Z,149.37
2019-02-09T22:51:26.471Z,175.27
2019-02-09T22:54:00.649Z,155.60
2019-02-09T22:56:30.560Z,161.10
2019-02-09T22:59:01.737Z,186.07
2019-02-09T23:01:34.776Z,163.27
2019-02-09T23:04:13.615Z,181.65
2019-02-09T23:06:59.256Z,161.30
2019-02-09T23:09:30.379Z,151.20
2019-02-09T23:12:01.278Z,166.10
2019-02-09T23:14:31.326Z,169.17
2019-02-09T23:17:13.692Z,158.13
2019-02-09T23:19:44.312Z,145.73
2019-02-09T23:22:14.233Z,141.47
2019-02-09T23:24:44.308Z,140.60
2019-02-09T23:27:14.292Z,140.00
2019-02-09T23:29:45.424Z,147.00
2019-02-09T23:32:15.327Z,151.40
2019-02-09T23:34:45.362Z,154.77
2019-02-09T23:37:15.277Z,151.90
2019-02-09T23:39:46.498Z,152.97
2019-02-09T23:42:16.406Z,155.80
2019-02-09T23:44:46.444Z,151.73
2019-02-09T23:47:16.360Z,164.20
2019-02-09T23:49:47.498Z,163.03
2019-02-09T23:52:17.396Z,167.00
2019-02-09T23:54:47.486Z,164.30
2019-02-09T23:57:17.431Z,154.50
2019-02-09T23:59:47.452Z,161.97
